sensor_id;sensor_type;location;lat;lon;timestamp;temperature;humidity
65470;DHT22;52067;50.710;14.492;2023-08-07T00:02:10;14.62;90.95
65470;DHT22;52067;50.710;14.492;2023-08-07T00:04:35;14.81;90.60
65470;DHT22;52067;50.710;14.492;2023-08-07T00:07:00;14.91;90.29
65470;DHT22;52067;50.710;14.492;2023-08-07T00:09:26;14.97;90.14
65470;DHT22;52067;50.710;14.492;2023-08-07T00:11:51;14.99;90.10
65470;DHT22;52067;50.710;14.492;2023-08-07T00:14:16;14.93;90.11
65470;DHT22;52067;50.710;14.492;2023-08-07T00:16:42;14.83;90.14
65470;DHT22;52067;50.710;14.492;2023-08-07T00:19:07;15.00;90.00
65470;DHT22;52067;50.710;14.492;2023-08-07T00:21:32;15.11;89.72
65470;DHT22;52067;50.710;14.492;2023-08-07T00:23:59;15.17;89.52
65470;DHT22;52067;50.710;14.492;2023-08-07T00:26:25;15.11;89.29
65470;DHT22;52067;50.710;14.492;2023-08-07T00:28:50;15.21;89.33
65470;DHT22;52067;50.710;14.492;2023-08-07T00:31:15;15.12;89.02
65470;DHT22;52067;50.710;14.492;2023-08-07T00:33:41;14.81;89.87
65470;DHT22;52067;50.710;14.492;2023-08-07T00:36:06;14.91;89.80
65470;DHT22;52067;50.710;14.492;2023-08-07T00:38:31;14.83;90.13
65470;DHT22;52067;50.710;14.492;2023-08-07T00:40:56;14.96;89.70
65470;DHT22;52067;50.710;14.492;2023-08-07T00:43:22;14.97;89.33
65470;DHT22;52067;50.710;14.492;2023-08-07T00:45:47;14.84;88.94
65470;DHT22;52067;50.710;14.492;2023-08-07T00:48:13;14.80;89.09
65470;DHT22;52067;50.710;14.492;2023-08-07T00:50:40;14.89;89.05
65470;DHT22;52067;50.710;14.492;2023-08-07T00:53:06;14.86;88.46
65470;DHT22;52067;50.710;14.492;2023-08-07T00:55:32;14.89;88.68
65470;DHT22;52067;50.710;14.492;2023-08-07T00:57:58;14.76;88.66
65470;DHT22;52067;50.710;14.492;2023-08-07T01:00:23;14.83;89.04
65470;DHT22;52067;50.710;14.492;2023-08-07T01:02:49;14.90;88.74
65470;DHT22;52067;50.710;14.492;2023-08-07T01:05:16;15.00;88.61
65470;DHT22;52067;50.710;14.492;2023-08-07T01:07:41;15.11;88.72
65470;DHT22;52067;50.710;14.492;2023-08-07T01:10:07;15.16;88.69
65470;DHT22;52067;50.710;14.492;2023-08-07T01:12:36;15.16;88.60
65470;DHT22;52067;50.710;14.492;2023-08-07T01:15:08;15.28;88.18
65470;DHT22;52067;50.710;14.492;2023-08-07T01:17:35;15.12;88.43
65470;DHT22;52067;50.710;14.492;2023-08-07T01:20:01;15.23;88.97
65470;DHT22;52067;50.710;14.492;2023-08-07T01:22:27;15.21;89.16
65470;DHT22;52067;50.710;14.492;2023-08-07T01:24:52;15.28;88.75
65470;DHT22;52067;50.710;14.492;2023-08-07T01:35:03;14.89;89.64
65470;DHT22;52067;50.710;14.492;2023-08-07T01:37:30;14.96;89.81
65470;DHT22;52067;50.710;14.492;2023-08-07T01:39:57;14.94;89.49
65470;DHT22;52067;50.710;14.492;2023-08-07T01:42:23;14.94;89.04
65470;DHT22;52067;50.710;14.492;2023-08-07T01:44:49;14.91;88.67
65470;DHT22;52067;50.710;14.492;2023-08-07T01:47:14;14.70;88.84
65470;DHT22;52067;50.710;14.492;2023-08-07T01:49:40;14.62;88.79
65470;DHT22;52067;50.710;14.492;2023-08-07T01:52:06;14.62;88.83
65470;DHT22;52067;50.710;14.492;2023-08-07T01:54:31;14.72;89.23
65470;DHT22;52067;50.710;14.492;2023-08-07T01:56:56;14.80;89.12
65470;DHT22;52067;50.710;14.492;2023-08-07T01:59:22;14.90;88.58
65470;DHT22;52067;50.710;14.492;2023-08-07T02:01:47;14.93;88.32
65470;DHT22;52067;50.710;14.492;2023-08-07T02:04:12;14.87;88.36
65470;DHT22;52067;50.710;14.492;2023-08-07T02:06:37;14.89;88.29
65470;DHT22;52067;50.710;14.492;2023-08-07T02:09:03;14.87;88.27
65470;DHT22;52067;50.710;14.492;2023-08-07T02:11:28;14.76;88.30
65470;DHT22;52067;50.710;14.492;2023-08-07T02:13:53;14.68;89.16
65470;DHT22;52067;50.710;14.492;2023-08-07T02:16:18;14.69;89.29
65470;DHT22;52067;50.710;14.492;2023-08-07T02:18:44;14.73;89.22
65470;DHT22;52067;50.710;14.492;2023-08-07T02:21:09;14.81;89.22
65470;DHT22;52067;50.710;14.492;2023-08-07T02:23:34;14.80;89.39
65470;DHT22;52067;50.710;14.492;2023-08-07T02:25:59;14.76;89.52
65470;DHT22;52067;50.710;14.492;2023-08-07T02:28:25;14.83;89.50
65470;DHT22;52067;50.710;14.492;2023-08-07T02:30:50;14.79;88.92
65470;DHT22;52067;50.710;14.492;2023-08-07T02:33:16;14.49;89.09
65470;DHT22;52067;50.710;14.492;2023-08-07T02:35:41;14.59;89.32
65470;DHT22;52067;50.710;14.492;2023-08-07T02:38:07;14.51;89.01
65470;DHT22;52067;50.710;14.492;2023-08-07T02:40:32;14.38;88.69
65470;DHT22;52067;50.710;14.492;2023-08-07T02:42:57;14.45;89.22
65470;DHT22;52067;50.710;14.492;2023-08-07T02:45:22;14.39;89.54
65470;DHT22;52067;50.710;14.492;2023-08-07T02:47:48;14.49;89.65
65470;DHT22;52067;50.710;14.492;2023-08-07T02:50:13;14.45;89.51
65470;DHT22;52067;50.710;14.492;2023-08-07T02:52:38;14.49;89.54
65470;DHT22;52067;50.710;14.492;2023-08-07T02:55:04;14.48;89.91
65470;DHT22;52067;50.710;14.492;2023-08-07T02:57:29;14.51;90.06
65470;DHT22;52067;50.710;14.492;2023-08-07T02:59:54;14.55;90.28
65470;DHT22;52067;50.710;14.492;2023-08-07T03:02:20;14.58;90.02
65470;DHT22;52067;50.710;14.492;2023-08-07T03:04:45;14.60;89.90
65470;DHT22;52067;50.710;14.492;2023-08-07T03:07:10;14.46;90.26
65470;DHT22;52067;50.710;14.492;2023-08-07T03:09:35;14.55;90.32
65470;DHT22;52067;50.710;14.492;2023-08-07T03:12:01;14.65;90.12
65470;DHT22;52067;50.710;14.492;2023-08-07T03:14:28;14.66;89.73
65470;DHT22;52067;50.710;14.492;2023-08-07T03:16:53;14.58;90.11
65470;DHT22;52067;50.710;14.492;2023-08-07T03:19:19;14.69;89.89
65470;DHT22;52067;50.710;14.492;2023-08-07T03:21:46;14.79;89.62
65470;DHT22;52067;50.710;14.492;2023-08-07T03:24:11;14.45;90.12
65470;DHT22;52067;50.710;14.492;2023-08-07T03:26:37;14.60;90.21
65470;DHT22;52067;50.710;14.492;2023-08-07T03:29:02;14.65;89.78
65470;DHT22;52067;50.710;14.492;2023-08-07T03:31:27;14.62;89.61
65470;DHT22;52067;50.710;14.492;2023-08-07T03:33:52;14.65;89.50
65470;DHT22;52067;50.710;14.492;2023-08-07T03:36:18;14.43;89.64
65470;DHT22;52067;50.710;14.492;2023-08-07T03:38:44;14.25;89.48
65470;DHT22;52067;50.710;14.492;2023-08-07T03:41:09;14.36;89.65
65470;DHT22;52067;50.710;14.492;2023-08-07T03:43:35;14.10;89.94
65470;DHT22;52067;50.710;14.492;2023-08-07T03:46:00;14.05;90.35
65470;DHT22;52067;50.710;14.492;2023-08-07T03:48:25;14.14;90.19
65470;DHT22;52067;50.710;14.492;2023-08-07T03:50:51;14.10;90.17
65470;DHT22;52067;50.710;14.492;2023-08-07T03:53:16;14.05;90.48
65470;DHT22;52067;50.710;14.492;2023-08-07T03:55:41;14.14;90.37
65470;DHT22;52067;50.710;14.492;2023-08-07T03:58:07;14.04;90.73
65470;DHT22;52067;50.710;14.492;2023-08-07T04:00:32;14.14;90.60
65470;DHT22;52067;50.710;14.492;2023-08-07T04:02:58;14.32;90.44
65470;DHT22;52067;50.710;14.492;2023-08-07T04:05:23;14.36;90.18
65470;DHT22;52067;50.710;14.492;2023-08-07T04:07:48;14.45;89.77
65470;DHT22;52067;50.710;14.492;2023-08-07T04:10:14;14.38;90.13
65470;DHT22;52067;50.710;14.492;2023-08-07T04:12:39;14.36;90.06
65470;DHT22;52067;50.710;14.492;2023-08-07T04:15:04;14.55;89.96
65470;DHT22;52067;50.710;14.492;2023-08-07T04:17:30;14.58;89.53
65470;DHT22;52067;50.710;14.492;2023-08-07T04:19:55;14.70;89.25
65470;DHT22;52067;50.710;14.492;2023-08-07T04:22:20;14.43;89.34
65470;DHT22;52067;50.710;14.492;2023-08-07T04:24:46;14.31;88.65
65470;DHT22;52067;50.710;14.492;2023-08-07T04:27:11;14.28;89.09
65470;DHT22;52067;50.710;14.492;2023-08-07T04:29:37;14.20;89.26
65470;DHT22;52067;50.710;14.492;2023-08-07T04:32:02;14.17;88.86
65470;DHT22;52067;50.710;14.492;2023-08-07T04:34:28;14.08;89.15
65470;DHT22;52067;50.710;14.492;2023-08-07T04:36:53;14.08;88.53
65470;DHT22;52067;50.710;14.492;2023-08-07T04:39:20;14.02;88.22
65470;DHT22;52067;50.710;14.492;2023-08-07T04:41:45;13.95;87.88
65470;DHT22;52067;50.710;14.492;2023-08-07T04:44:10;13.84;87.88
65470;DHT22;52067;50.710;14.492;2023-08-07T04:46:36;13.73;88.00
65470;DHT22;52067;50.710;14.492;2023-08-07T04:49:01;13.83;87.70
65470;DHT22;52067;50.710;14.492;2023-08-07T04:51:26;13.56;89.41
65470;DHT22;52067;50.710;14.492;2023-08-07T04:53:53;13.64;88.44
65470;DHT22;52067;50.710;14.492;2023-08-07T04:56:21;13.69;88.48
65470;DHT22;52067;50.710;14.492;2023-08-07T04:58:46;13.71;88.23
65470;DHT22;52067;50.710;14.492;2023-08-07T05:01:12;13.57;88.90
65470;DHT22;52067;50.710;14.492;2023-08-07T05:03:37;13.52;88.90
65470;DHT22;52067;50.710;14.492;2023-08-07T05:06:02;13.60;88.70
65470;DHT22;52067;50.710;14.492;2023-08-07T05:08:28;13.52;88.96
65470;DHT22;52067;50.710;14.492;2023-08-07T05:10:53;13.54;88.78
65470;DHT22;52067;50.710;14.492;2023-08-07T05:13:18;13.50;88.99
65470;DHT22;52067;50.710;14.492;2023-08-07T05:15:46;13.46;88.86
65470;DHT22;52067;50.710;14.492;2023-08-07T05:18:11;13.42;89.50
65470;DHT22;52067;50.710;14.492;2023-08-07T05:20:37;13.44;89.89
65470;DHT22;52067;50.710;14.492;2023-08-07T05:23:02;13.39;90.16
65470;DHT22;52067;50.710;14.492;2023-08-07T05:25:27;13.64;89.77
65470;DHT22;52067;50.710;14.492;2023-08-07T05:27:52;13.74;90.00
65470;DHT22;52067;50.710;14.492;2023-08-07T05:30:18;13.83;88.90
65470;DHT22;52067;50.710;14.492;2023-08-07T05:32:43;13.83;88.85
65470;DHT22;52067;50.710;14.492;2023-08-07T05:35:09;14.01;88.87
65470;DHT22;52067;50.710;14.492;2023-08-07T05:37:34;14.08;88.51
65470;DHT22;52067;50.710;14.492;2023-08-07T05:40:00;14.18;88.76
65470;DHT22;52067;50.710;14.492;2023-08-07T05:42:25;14.46;87.96
65470;DHT22;52067;50.710;14.492;2023-08-07T05:44:50;14.56;87.59
65470;DHT22;52067;50.710;14.492;2023-08-07T05:47:15;14.55;88.54
65470;DHT22;52067;50.710;14.492;2023-08-07T05:49:41;14.69;88.78
65470;DHT22;52067;50.710;14.492;2023-08-07T05:52:06;14.39;87.45
65470;DHT22;52067;50.710;14.492;2023-08-07T05:54:32;14.66;87.34
65470;DHT22;52067;50.710;14.492;2023-08-07T05:56:57;14.51;88.17
65470;DHT22;52067;50.710;14.492;2023-08-07T05:59:22;14.18;89.61
65470;DHT22;52067;50.710;14.492;2023-08-07T06:01:47;14.05;90.41
65470;DHT22;52067;50.710;14.492;2023-08-07T06:04:13;14.29;89.68
65470;DHT22;52067;50.710;14.492;2023-08-07T06:06:38;14.55;88.65
65470;DHT22;52067;50.710;14.492;2023-08-07T06:09:04;14.58;87.80
65470;DHT22;52067;50.710;14.492;2023-08-07T06:11:31;14.73;87.78
65470;DHT22;52067;50.710;14.492;2023-08-07T06:13:56;14.76;87.21
65470;DHT22;52067;50.710;14.492;2023-08-07T06:16:22;14.77;86.95
65470;DHT22;52067;50.710;14.492;2023-08-07T06:18:47;14.80;86.88
65470;DHT22;52067;50.710;14.492;2023-08-07T06:21:12;14.90;86.86
65470;DHT22;52067;50.710;14.492;2023-08-07T06:23:37;14.90;87.07
65470;DHT22;52067;50.710;14.492;2023-08-07T06:26:03;14.87;87.33
65470;DHT22;52067;50.710;14.492;2023-08-07T06:28:29;14.83;87.90
65470;DHT22;52067;50.710;14.492;2023-08-07T06:31:00;14.96;87.35
65470;DHT22;52067;50.710;14.492;2023-08-07T06:33:25;15.11;86.65
65470;DHT22;52067;50.710;14.492;2023-08-07T06:35:52;15.30;86.56
65470;DHT22;52067;50.710;14.492;2023-08-07T06:38:17;15.16;86.42
65470;DHT22;52067;50.710;14.492;2023-08-07T06:40:42;15.23;85.52
65470;DHT22;52067;50.710;14.492;2023-08-07T06:43:09;15.41;84.79
65470;DHT22;52067;50.710;14.492;2023-08-07T06:45:34;15.45;83.88
65470;DHT22;52067;50.710;14.492;2023-08-07T06:47:59;15.66;84.92
65470;DHT22;52067;50.710;14.492;2023-08-07T06:50:25;15.55;85.33
65470;DHT22;52067;50.710;14.492;2023-08-07T06:52:50;15.57;84.45
65470;DHT22;52067;50.710;14.492;2023-08-07T06:55:16;15.81;84.20
65470;DHT22;52067;50.710;14.492;2023-08-07T06:57:41;15.76;82.72
65470;DHT22;52067;50.710;14.492;2023-08-07T07:00:06;15.68;84.30
65470;DHT22;52067;50.710;14.492;2023-08-07T07:02:32;15.93;83.75
65470;DHT22;52067;50.710;14.492;2023-08-07T07:04:57;15.54;83.31
65470;DHT22;52067;50.710;14.492;2023-08-07T07:07:22;15.73;81.53
65470;DHT22;52067;50.710;14.492;2023-08-07T07:09:48;15.73;82.64
65470;DHT22;52067;50.710;14.492;2023-08-07T07:12:13;16.10;81.76
65470;DHT22;52067;50.710;14.492;2023-08-07T07:14:38;16.09;81.36
65470;DHT22;52067;50.710;14.492;2023-08-07T07:17:03;16.23;81.93
65470;DHT22;52067;50.710;14.492;2023-08-07T07:19:29;16.33;80.85
65470;DHT22;52067;50.710;14.492;2023-08-07T07:21:54;16.20;81.45
65470;DHT22;52067;50.710;14.492;2023-08-07T07:24:19;16.21;79.38
65470;DHT22;52067;50.710;14.492;2023-08-07T07:26:44;16.18;79.92
65470;DHT22;52067;50.710;14.492;2023-08-07T07:29:10;16.53;79.91
65470;DHT22;52067;50.710;14.492;2023-08-07T07:31:35;16.41;77.97
65470;DHT22;52067;50.710;14.492;2023-08-07T07:34:00;16.61;77.54
65470;DHT22;52067;50.710;14.492;2023-08-07T07:36:26;16.69;76.60
65470;DHT22;52067;50.710;14.492;2023-08-07T07:38:51;16.67;78.64
65470;DHT22;52067;50.710;14.492;2023-08-07T07:41:16;16.72;78.08
65470;DHT22;52067;50.710;14.492;2023-08-07T07:43:42;16.82;77.62
65470;DHT22;52067;50.710;14.492;2023-08-07T07:46:07;16.81;75.68
65470;DHT22;52067;50.710;14.492;2023-08-07T07:48:33;16.82;75.17
65470;DHT22;52067;50.710;14.492;2023-08-07T07:50:58;16.88;76.47
65470;DHT22;52067;50.710;14.492;2023-08-07T07:53:24;16.79;76.55
65470;DHT22;52067;50.710;14.492;2023-08-07T07:55:49;17.02;75.94
65470;DHT22;52067;50.710;14.492;2023-08-07T07:58:15;17.01;76.77
65470;DHT22;52067;50.710;14.492;2023-08-07T08:00:40;17.18;76.87
65470;DHT22;52067;50.710;14.492;2023-08-07T08:03:05;17.23;76.19
65470;DHT22;52067;50.710;14.492;2023-08-07T08:05:31;16.99;74.96
65470;DHT22;52067;50.710;14.492;2023-08-07T08:07:57;17.12;75.44
65470;DHT22;52067;50.710;14.492;2023-08-07T08:10:22;17.33;77.85
65470;DHT22;52067;50.710;14.492;2023-08-07T08:12:47;17.64;74.89
65470;DHT22;52067;50.710;14.492;2023-08-07T08:15:12;17.22;72.49
65470;DHT22;52067;50.710;14.492;2023-08-07T08:17:38;17.77;72.89
65470;DHT22;52067;50.710;14.492;2023-08-07T08:20:04;17.92;74.10
65470;DHT22;52067;50.710;14.492;2023-08-07T08:22:29;17.43;73.20
65470;DHT22;52067;50.710;14.492;2023-08-07T08:24:55;17.22;72.95
65470;DHT22;52067;50.710;14.492;2023-08-07T08:27:20;16.48;78.24
65470;DHT22;52067;50.710;14.492;2023-08-07T08:29:46;15.83;81.19
65470;DHT22;52067;50.710;14.492;2023-08-07T08:32:11;15.44;82.81
65470;DHT22;52067;50.710;14.492;2023-08-07T08:34:37;15.00;85.82
65470;DHT22;52067;50.710;14.492;2023-08-07T08:37:02;14.81;86.08
65470;DHT22;52067;50.710;14.492;2023-08-07T08:39:30;14.86;85.76
65470;DHT22;52067;50.710;14.492;2023-08-07T08:41:56;14.87;85.56
65470;DHT22;52067;50.710;14.492;2023-08-07T08:44:21;15.12;85.27
65470;DHT22;52067;50.710;14.492;2023-08-07T08:46:47;15.55;85.05
65470;DHT22;52067;50.710;14.492;2023-08-07T08:49:14;15.93;84.40
65470;DHT22;52067;50.710;14.492;2023-08-07T08:51:41;16.00;83.75
65470;DHT22;52067;50.710;14.492;2023-08-07T08:54:07;16.17;81.15
65470;DHT22;52067;50.710;14.492;2023-08-07T08:56:32;16.64;82.09
65470;DHT22;52067;50.710;14.492;2023-08-07T08:58:58;16.76;80.16
65470;DHT22;52067;50.710;14.492;2023-08-07T09:01:23;16.72;80.25
65470;DHT22;52067;50.710;14.492;2023-08-07T09:03:49;16.50;80.66
65470;DHT22;52067;50.710;14.492;2023-08-07T09:06:17;16.48;82.44
65470;DHT22;52067;50.710;14.492;2023-08-07T09:08:43;16.75;79.84
65470;DHT22;52067;50.710;14.492;2023-08-07T09:11:10;16.88;78.35
65470;DHT22;52067;50.710;14.492;2023-08-07T09:13:36;17.08;77.22
65470;DHT22;52067;50.710;14.492;2023-08-07T09:16:01;17.09;80.40
65470;DHT22;52067;50.710;14.492;2023-08-07T09:18:27;17.57;77.68
65470;DHT22;52067;50.710;14.492;2023-08-07T09:20:52;17.94;75.75
65470;DHT22;52067;50.710;14.492;2023-08-07T09:23:18;17.95;75.59
65470;DHT22;52067;50.710;14.492;2023-08-07T09:25:43;18.36;75.57
65470;DHT22;52067;50.710;14.492;2023-08-07T09:28:09;18.46;73.02
65470;DHT22;52067;50.710;14.492;2023-08-07T09:30:35;18.89;70.64
65470;DHT22;52067;50.710;14.492;2023-08-07T09:33:01;18.81;70.72
65470;DHT22;52067;50.710;14.492;2023-08-07T09:35:26;19.15;71.70
65470;DHT22;52067;50.710;14.492;2023-08-07T09:37:52;19.58;68.44
65470;DHT22;52067;50.710;14.492;2023-08-07T09:40:17;19.15;68.41
65470;DHT22;52067;50.710;14.492;2023-08-07T09:42:43;18.89;69.56
65470;DHT22;52067;50.710;14.492;2023-08-07T09:45:25;18.21;70.98
65470;DHT22;52067;50.710;14.492;2023-08-07T09:47:57;18.31;71.00
65470;DHT22;52067;50.710;14.492;2023-08-07T09:50:22;18.18;70.95
65470;DHT22;52067;50.710;14.492;2023-08-07T09:52:48;18.86;72.32
65470;DHT22;52067;50.710;14.492;2023-08-07T09:55:14;18.61;71.32
65470;DHT22;52067;50.710;14.492;2023-08-07T09:57:42;18.55;69.69
65470;DHT22;52067;50.710;14.492;2023-08-07T10:00:07;18.77;69.88
65470;DHT22;52067;50.710;14.492;2023-08-07T10:02:36;18.57;68.21
65470;DHT22;52067;50.710;14.492;2023-08-07T10:05:01;18.73;71.12
65470;DHT22;52067;50.710;14.492;2023-08-07T10:07:29;18.69;68.79
65470;DHT22;52067;50.710;14.492;2023-08-07T10:09:55;19.11;69.61
65470;DHT22;52067;50.710;14.492;2023-08-07T10:12:20;19.01;68.02
65470;DHT22;52067;50.710;14.492;2023-08-07T10:14:45;18.69;68.70
65470;DHT22;52067;50.710;14.492;2023-08-07T10:17:11;18.52;69.31
65470;DHT22;52067;50.710;14.492;2023-08-07T10:19:36;18.11;69.67
65470;DHT22;52067;50.710;14.492;2023-08-07T10:22:04;18.11;71.67
65470;DHT22;52067;50.710;14.492;2023-08-07T10:24:29;18.29;69.11
65470;DHT22;52067;50.710;14.492;2023-08-07T10:26:55;19.11;67.94
65470;DHT22;52067;50.710;14.492;2023-08-07T10:29:21;19.48;66.49
65470;DHT22;52067;50.710;14.492;2023-08-07T10:31:49;19.94;65.94
65470;DHT22;52067;50.710;14.492;2023-08-07T10:34:15;19.87;66.14
65470;DHT22;52067;50.710;14.492;2023-08-07T10:36:40;20.12;62.08
65470;DHT22;52067;50.710;14.492;2023-08-07T10:39:10;20.55;61.54
65470;DHT22;52067;50.710;14.492;2023-08-07T10:41:39;20.75;61.02
65470;DHT22;52067;50.710;14.492;2023-08-07T10:44:08;21.18;62.66
65470;DHT22;52067;50.710;14.492;2023-08-07T10:49:31;20.45;60.36
65470;DHT22;52067;50.710;14.492;2023-08-07T10:52:09;20.71;60.78
65470;DHT22;52067;50.710;14.492;2023-08-07T10:54:39;19.97;63.27
65470;DHT22;52067;50.710;14.492;2023-08-07T10:57:10;20.71;58.21
65470;DHT22;52067;50.710;14.492;2023-08-07T10:59:35;21.16;59.42
65470;DHT22;52067;50.710;14.492;2023-08-07T11:02:02;22.01;56.91
65470;DHT22;52067;50.710;14.492;2023-08-07T11:04:27;21.10;57.56
65470;DHT22;52067;50.710;14.492;2023-08-07T11:06:53;21.85;59.23
65470;DHT22;52067;50.710;14.492;2023-08-07T11:09:18;21.88;55.81
65470;DHT22;52067;50.710;14.492;2023-08-07T11:11:44;22.28;57.38
65470;DHT22;52067;50.710;14.492;2023-08-07T11:14:11;22.30;56.40
65470;DHT22;52067;50.710;14.492;2023-08-07T11:16:36;21.67;57.49
65470;DHT22;52067;50.710;14.492;2023-08-07T11:19:02;20.68;60.79
65470;DHT22;52067;50.710;14.492;2023-08-07T11:21:28;19.62;63.03
65470;DHT22;52067;50.710;14.492;2023-08-07T11:23:53;19.17;65.03
65470;DHT22;52067;50.710;14.492;2023-08-07T11:26:19;19.66;61.10
65470;DHT22;52067;50.710;14.492;2023-08-07T11:28:49;19.69;63.02
65470;DHT22;52067;50.710;14.492;2023-08-07T11:31:14;19.70;64.30
65470;DHT22;52067;50.710;14.492;2023-08-07T11:33:40;19.55;64.10
65470;DHT22;52067;50.710;14.492;2023-08-07T11:36:12;19.62;63.39
65470;DHT22;52067;50.710;14.492;2023-08-07T11:38:41;19.82;62.65
65470;DHT22;52067;50.710;14.492;2023-08-07T11:41:09;20.26;60.11
65470;DHT22;52067;50.710;14.492;2023-08-07T11:43:35;20.13;59.37
65470;DHT22;52067;50.710;14.492;2023-08-07T11:46:01;20.23;62.54
65470;DHT22;52067;50.710;14.492;2023-08-07T11:48:27;20.64;60.21
65470;DHT22;52067;50.710;14.492;2023-08-07T11:50:53;20.28;59.87
65470;DHT22;52067;50.710;14.492;2023-08-07T11:53:20;19.93;63.25
65470;DHT22;52067;50.710;14.492;2023-08-07T11:58:27;19.31;63.06
65470;DHT22;52067;50.710;14.492;2023-08-07T12:00:52;19.19;63.42
65470;DHT22;52067;50.710;14.492;2023-08-07T12:03:27;18.49;64.29
65470;DHT22;52067;50.710;14.492;2023-08-07T12:05:53;17.97;66.63
65470;DHT22;52067;50.710;14.492;2023-08-07T12:08:19;17.75;68.42
65470;DHT22;52067;50.710;14.492;2023-08-07T12:10:44;17.66;70.65
65470;DHT22;52067;50.710;14.492;2023-08-07T12:13:09;17.43;72.70
65470;DHT22;52067;50.710;14.492;2023-08-07T12:15:37;18.12;70.83
65470;DHT22;52067;50.710;14.492;2023-08-07T12:18:02;20.00;64.83
65470;DHT22;52067;50.710;14.492;2023-08-07T12:20:28;20.84;61.38
65470;DHT22;52067;50.710;14.492;2023-08-07T12:22:53;21.50;59.10
65470;DHT22;52067;50.710;14.492;2023-08-07T12:25:19;22.28;56.91
65470;DHT22;52067;50.710;14.492;2023-08-07T12:27:44;23.18;55.83
65470;DHT22;52067;50.710;14.492;2023-08-07T12:30:12;22.87;58.26
65470;DHT22;52067;50.710;14.492;2023-08-07T12:32:38;22.40;55.27
65470;DHT22;52067;50.710;14.492;2023-08-07T12:35:03;22.80;55.59
65470;DHT22;52067;50.710;14.492;2023-08-07T12:37:28;22.28;55.33
65470;DHT22;52067;50.710;14.492;2023-08-07T12:39:54;21.68;57.69
65470;DHT22;52067;50.710;14.492;2023-08-07T12:42:19;20.71;59.13
65470;DHT22;52067;50.710;14.492;2023-08-07T12:44:44;19.92;60.86
65470;DHT22;52067;50.710;14.492;2023-08-07T12:47:10;19.70;61.68
65470;DHT22;52067;50.710;14.492;2023-08-07T12:49:35;19.31;62.44
65470;DHT22;52067;50.710;14.492;2023-08-07T12:52:00;18.96;64.02
65470;DHT22;52067;50.710;14.492;2023-08-07T12:54:26;18.42;66.45
65470;DHT22;52067;50.710;14.492;2023-08-07T12:56:51;18.19;68.04
65470;DHT22;52067;50.710;14.492;2023-08-07T12:59:17;18.91;67.22
65470;DHT22;52067;50.710;14.492;2023-08-07T13:01:42;19.61;65.82
65470;DHT22;52067;50.710;14.492;2023-08-07T13:04:08;19.45;64.89
65470;DHT22;52067;50.710;14.492;2023-08-07T13:06:33;19.98;63.05
65470;DHT22;52067;50.710;14.492;2023-08-07T13:08:59;20.81;62.07
65470;DHT22;52067;50.710;14.492;2023-08-07T13:11:25;21.44;58.91
65470;DHT22;52067;50.710;14.492;2023-08-07T13:13:50;21.27;56.56
65470;DHT22;52067;50.710;14.492;2023-08-07T13:16:16;22.02;57.21
65470;DHT22;52067;50.710;14.492;2023-08-07T13:18:41;22.23;53.81
65470;DHT22;52067;50.710;14.492;2023-08-07T13:21:06;22.09;56.52
65470;DHT22;52067;50.710;14.492;2023-08-07T13:23:31;22.02;56.54
65470;DHT22;52067;50.710;14.492;2023-08-07T13:25:57;22.43;53.14
65470;DHT22;52067;50.710;14.492;2023-08-07T13:28:22;21.53;56.01
65470;DHT22;52067;50.710;14.492;2023-08-07T13:30:47;21.14;55.99
65470;DHT22;52067;50.710;14.492;2023-08-07T13:33:13;22.08;56.36
65470;DHT22;52067;50.710;14.492;2023-08-07T13:35:38;23.28;51.97
65470;DHT22;52067;50.710;14.492;2023-08-07T13:38:03;23.08;50.20
65470;DHT22;52067;50.710;14.492;2023-08-07T13:40:33;23.12;49.81
65470;DHT22;52067;50.710;14.492;2023-08-07T13:42:58;22.57;52.19
65470;DHT22;52067;50.710;14.492;2023-08-07T13:45:26;22.69;51.12
65470;DHT22;52067;50.710;14.492;2023-08-07T13:47:52;22.86;53.90
65470;DHT22;52067;50.710;14.492;2023-08-07T13:50:17;22.08;53.67
65470;DHT22;52067;50.710;14.492;2023-08-07T13:52:42;20.38;57.79
65470;DHT22;52067;50.710;14.492;2023-08-07T13:55:08;20.21;56.96
65470;DHT22;52067;50.710;14.492;2023-08-07T13:57:34;19.90;59.39
65470;DHT22;52067;50.710;14.492;2023-08-07T13:59:59;19.49;63.11
65470;DHT22;52067;50.710;14.492;2023-08-07T14:02:25;19.04;65.33
65470;DHT22;52067;50.710;14.492;2023-08-07T14:04:50;18.59;66.94
65470;DHT22;52067;50.710;14.492;2023-08-07T14:07:15;18.31;69.62
65470;DHT22;52067;50.710;14.492;2023-08-07T14:09:40;18.13;69.16
65470;DHT22;52067;50.710;14.492;2023-08-07T14:12:06;18.46;66.74
65470;DHT22;52067;50.710;14.492;2023-08-07T14:14:31;20.00;63.86
65470;DHT22;52067;50.710;14.492;2023-08-07T14:16:57;19.79;63.38
65470;DHT22;52067;50.710;14.492;2023-08-07T14:19:25;19.15;66.95
65470;DHT22;52067;50.710;14.492;2023-08-07T14:21:51;18.91;68.88
65470;DHT22;52067;50.710;14.492;2023-08-07T14:24:16;18.67;68.43
65470;DHT22;52067;50.710;14.492;2023-08-07T14:26:42;18.38;70.81
65470;DHT22;52067;50.710;14.492;2023-08-07T14:29:07;18.33;69.51
65470;DHT22;52067;50.710;14.492;2023-08-07T14:31:33;18.12;72.45
65470;DHT22;52067;50.710;14.492;2023-08-07T14:33:58;17.46;74.49
65470;DHT22;52067;50.710;14.492;2023-08-07T14:36:23;17.22;75.77
65470;DHT22;52067;50.710;14.492;2023-08-07T14:38:48;17.20;76.78
65470;DHT22;52067;50.710;14.492;2023-08-07T14:41:14;16.85;79.92
65470;DHT22;52067;50.710;14.492;2023-08-07T14:43:39;16.81;80.86
65470;DHT22;52067;50.710;14.492;2023-08-07T14:46:04;17.20;79.87
65470;DHT22;52067;50.710;14.492;2023-08-07T14:48:29;17.90;76.86
65470;DHT22;52067;50.710;14.492;2023-08-07T14:50:55;17.67;76.95
65470;DHT22;52067;50.710;14.492;2023-08-07T14:53:21;17.60;78.03
65470;DHT22;52067;50.710;14.492;2023-08-07T14:55:46;18.31;76.21
65470;DHT22;52067;50.710;14.492;2023-08-07T14:58:12;19.17;73.44
65470;DHT22;52067;50.710;14.492;2023-08-07T15:00:37;19.76;70.41
65470;DHT22;52067;50.710;14.492;2023-08-07T15:03:03;19.29;69.16
65470;DHT22;52067;50.710;14.492;2023-08-07T15:05:28;18.66;70.09
65470;DHT22;52067;50.710;14.492;2023-08-07T15:07:53;18.25;73.14
65470;DHT22;52067;50.710;14.492;2023-08-07T15:10:19;17.82;75.57
65470;DHT22;52067;50.710;14.492;2023-08-07T15:12:46;17.71;74.10
65470;DHT22;52067;50.710;14.492;2023-08-07T15:15:12;17.40;76.22
65470;DHT22;52067;50.710;14.492;2023-08-07T15:17:37;17.01;79.30
65470;DHT22;52067;50.710;14.492;2023-08-07T15:20:02;16.37;79.64